TNU676 WIII-WMKK
Flight info
| Callsign | TNU676 |
|---|---|
| Flight time | N/A |
| Altitude | 36000 |
| Route | WIII/07L DOLTA A585 PKU/N0461F370 N633 SALAX SALAX1J |
| Aircraft | A321/M-SDE3FGHIRWY/LB1 |
Departure
| Time | 2026-05-06 13:00 |
|---|---|
| Airport | Soekarno-Hatta International Airport (WIII) |
Arrival
| Time | N/A |
|---|---|
| Airport | Kuala Lumpur International Airport (WMKK) |
| Time | Latitude | Longitude | Altitude | Speed | Heading |
|---|---|---|---|---|---|
| 2026-05-06 12:35 | -6.11802 | 106.65953 | 38 ft | 0 kts | 248° |
| 2026-05-06 12:44 | -6.11794 | 106.65979 | 38 ft | 4 kts | 265° |
| 2026-05-06 12:44 | -6.11796 | 106.66005 | 38 ft | 4 kts | 282° |
| 2026-05-06 12:44 | -6.11799 | 106.66019 | 38 ft | 2 kts | 283° |
| 2026-05-06 12:44 | -6.11803 | 106.66044 | 37 ft | 4 kts | 269° |
| 2026-05-06 12:45 | -6.11799 | 106.66070 | 38 ft | 4 kts | 252° |
| 2026-05-06 12:45 | -6.11793 | 106.66089 | 38 ft | 0 kts | 248° |
| 2026-05-06 12:46 | -6.11793 | 106.66088 | 38 ft | 1 kts | 248° |
| 2026-05-06 12:47 | -6.11801 | 106.66063 | 38 ft | 7 kts | 258° |
| 2026-05-06 12:47 | -6.11771 | 106.66011 | 38 ft | 12 kts | 327° |
| 2026-05-06 12:47 | -6.11680 | 106.65975 | 38 ft | 14 kts | 342° |
| 2026-05-06 12:47 | -6.11590 | 106.65938 | 36 ft | 14 kts | 334° |
| 2026-05-06 12:48 | -6.11516 | 106.65888 | 37 ft | 12 kts | 300° |
| 2026-05-06 12:48 | -6.11527 | 106.65809 | 35 ft | 11 kts | 249° |
| 2026-05-06 12:48 | -6.11555 | 106.65740 | 36 ft | 10 kts | 248° |
| 2026-05-06 12:48 | -6.11580 | 106.65677 | 38 ft | 9 kts | 248° |
| 2026-05-06 12:49 | -6.11602 | 106.65621 | 38 ft | 8 kts | 248° |
| 2026-05-06 12:49 | -6.11628 | 106.65556 | 38 ft | 13 kts | 248° |
| 2026-05-06 12:49 | -6.11675 | 106.65439 | 38 ft | 23 kts | 248° |
| 2026-05-06 12:49 | -6.11746 | 106.65260 | 39 ft | 30 kts | 248° |
| 2026-05-06 12:50 | -6.11823 | 106.65068 | 39 ft | 29 kts | 248° |
| 2026-05-06 12:50 | -6.11896 | 106.64883 | 39 ft | 27 kts | 248° |
| 2026-05-06 12:50 | -6.11964 | 106.64713 | 39 ft | 26 kts | 248° |
| 2026-05-06 12:50 | -6.12030 | 106.64548 | 37 ft | 25 kts | 248° |
| 2026-05-06 12:51 | -6.12094 | 106.64387 | 39 ft | 24 kts | 248° |
| 2026-05-06 12:51 | -6.12156 | 106.64232 | 39 ft | 24 kts | 248° |
| 2026-05-06 12:51 | -6.12216 | 106.64083 | 39 ft | 17 kts | 248° |
| 2026-05-06 12:51 | -6.12241 | 106.64019 | 39 ft | 4 kts | 248° |
| 2026-05-06 12:52 | -6.12246 | 106.64008 | 39 ft | 0 kts | 248° |
| 2026-05-06 12:53 | -6.12246 | 106.64007 | 39 ft | 1 kts | 248° |
| 2026-05-06 12:53 | -6.12260 | 106.63968 | 39 ft | 10 kts | 256° |
| 2026-05-06 12:53 | -6.12229 | 106.63901 | 40 ft | 5 kts | 335° |
| 2026-05-06 12:54 | -6.12222 | 106.63899 | 40 ft | 0 kts | 337° |
| 2026-05-06 12:55 | -6.12218 | 106.63897 | 40 ft | 4 kts | 337° |
| 2026-05-06 12:55 | -6.12160 | 106.63896 | 42 ft | 12 kts | 21° |
| 2026-05-06 12:55 | -6.12102 | 106.63908 | 41 ft | 7 kts | 24° |
| 2026-05-06 12:56 | -6.12077 | 106.63946 | 41 ft | 5 kts | 67° |
| 2026-05-06 12:56 | -6.12074 | 106.63952 | 40 ft | 0 kts | 68° |
| 2026-05-06 12:58 | -6.12073 | 106.63955 | 40 ft | 4 kts | 68° |
| 2026-05-06 12:59 | -6.11986 | 106.64172 | 38 ft | 69 kts | 68° |
| 2026-05-06 12:59 | -6.11730 | 106.64815 | 44 ft | 126 kts | 68° |
| 2026-05-06 12:59 | -6.11344 | 106.65782 | 41 ft | 170 kts | 68° |
| 2026-05-06 12:59 | -6.10901 | 106.66903 | 564 ft | 171 kts | 68° |
| 2026-05-06 13:00 | -6.10444 | 106.68067 | 900 ft | 189 kts | 68° |
| 2026-05-06 13:00 | -6.09915 | 106.69342 | 1032 ft | 208 kts | 61° |
| 2026-05-06 13:00 | -6.08849 | 106.70413 | 1159 ft | 230 kts | 34° |
| 2026-05-06 13:00 | -6.07376 | 106.71249 | 1418 ft | 252 kts | 27° |
| 2026-05-06 13:01 | -6.05770 | 106.72018 | 2081 ft | 258 kts | 26° |
| 2026-05-06 13:01 | -6.04158 | 106.72776 | 2834 ft | 260 kts | 27° |
| 2026-05-06 13:01 | -6.02502 | 106.73580 | 3562 ft | 263 kts | 28° |
| 2026-05-06 13:01 | -6.00851 | 106.74409 | 4269 ft | 266 kts | 29° |
| 2026-05-06 13:02 | -5.99183 | 106.75254 | 4842 ft | 272 kts | 26° |
| 2026-05-06 13:02 | -5.97317 | 106.75585 | 4984 ft | 278 kts | 354° |
| 2026-05-06 13:02 | -5.95545 | 106.74830 | 5008 ft | 282 kts | 320° |
| 2026-05-06 13:02 | -5.94372 | 106.73254 | 5011 ft | 286 kts | 297° |
| 2026-05-06 13:03 | -5.93623 | 106.71400 | 5011 ft | 287 kts | 289° |
| 2026-05-06 13:03 | -5.93008 | 106.69492 | 5011 ft | 287 kts | 288° |
| 2026-05-06 13:03 | -5.92330 | 106.67598 | 5086 ft | 291 kts | 298° |
| 2026-05-06 13:03 | -5.91127 | 106.66024 | 5755 ft | 289 kts | 320° |
| 2026-05-06 13:04 | -5.89527 | 106.64745 | 6458 ft | 290 kts | 324° |
| 2026-05-06 13:04 | -5.87940 | 106.63486 | 7119 ft | 293 kts | 319° |
| 2026-05-06 13:04 | -5.86465 | 106.62096 | 7727 ft | 296 kts | 318° |
| 2026-05-06 13:04 | -5.84935 | 106.60656 | 8343 ft | 299 kts | 318° |
| 2026-05-06 13:05 | -5.83390 | 106.59204 | 8924 ft | 301 kts | 318° |
| 2026-05-06 13:05 | -5.81854 | 106.57760 | 9472 ft | 304 kts | 318° |
| 2026-05-06 13:05 | -5.80324 | 106.56319 | 10021 ft | 307 kts | 318° |
| 2026-05-06 13:05 | -5.78738 | 106.54825 | 10267 ft | 321 kts | 317° |
| 2026-05-06 13:06 | -5.77045 | 106.53231 | 10404 ft | 338 kts | 317° |
| 2026-05-06 13:06 | -5.75291 | 106.51575 | 10534 ft | 354 kts | 317° |
| 2026-05-06 13:06 | -5.73464 | 106.49850 | 10655 ft | 368 kts | 317° |
| 2026-05-06 13:06 | -5.71575 | 106.48067 | 11001 ft | 375 kts | 317° |
| 2026-05-06 13:07 | -5.69665 | 106.46264 | 11457 ft | 379 kts | 317° |
| 2026-05-06 13:07 | -5.67735 | 106.44441 | 11941 ft | 382 kts | 317° |
| 2026-05-06 13:07 | -5.65802 | 106.42614 | 12429 ft | 384 kts | 317° |
| 2026-05-06 13:07 | -5.63846 | 106.40767 | 12914 ft | 387 kts | 317° |
| 2026-05-06 13:08 | -5.61882 | 106.38913 | 13398 ft | 389 kts | 317° |
| 2026-05-06 13:08 | -5.59898 | 106.37043 | 13869 ft | 391 kts | 317° |